sensor_id;sensor_type;location;lat;lon;timestamp;P1;durP1;ratioP1;P2;durP2;ratioP2
7158;SDS011;63175;52.374;13.132;2024-03-08T00:00:07;20.37;;;12.50;;
7158;SDS011;63175;52.374;13.132;2024-03-08T00:02:37;26.80;;;13.10;;
7158;SDS011;63175;52.374;13.132;2024-03-08T00:05:04;24.07;;;12.33;;
7158;SDS011;63175;52.374;13.132;2024-03-08T00:07:33;21.33;;;12.20;;
7158;SDS011;63175;52.374;13.132;2024-03-08T00:10:02;24.20;;;13.10;;
7158;SDS011;63175;52.374;13.132;2024-03-08T00:12:29;20.57;;;12.60;;
7158;SDS011;63175;52.374;13.132;2024-03-08T00:14:55;21.20;;;12.63;;
7158;SDS011;63175;52.374;13.132;2024-03-08T00:17:22;20.40;;;13.37;;
7158;SDS011;63175;52.374;13.132;2024-03-08T00:19:50;22.10;;;12.70;;
7158;SDS011;63175;52.374;13.132;2024-03-08T00:22:17;22.43;;;12.80;;
7158;SDS011;63175;52.374;13.132;2024-03-08T00:24:44;21.17;;;12.00;;
7158;SDS011;63175;52.374;13.132;2024-03-08T00:27:12;20.00;;;11.97;;
7158;SDS011;63175;52.374;13.132;2024-03-08T00:29:39;22.03;;;12.50;;
7158;SDS011;63175;52.374;13.132;2024-03-08T00:32:06;16.60;;;10.60;;
7158;SDS011;63175;52.374;13.132;2024-03-08T00:34:34;16.97;;;11.50;;
7158;SDS011;63175;52.374;13.132;2024-03-08T00:37:02;19.27;;;12.10;;
7158;SDS011;63175;52.374;13.132;2024-03-08T00:39:30;20.43;;;12.30;;
7158;SDS011;63175;52.374;13.132;2024-03-08T00:41:57;28.67;;;12.23;;
7158;SDS011;63175;52.374;13.132;2024-03-08T00:44:26;23.60;;;12.67;;
7158;SDS011;63175;52.374;13.132;2024-03-08T00:46:52;20.80;;;12.60;;
7158;SDS011;63175;52.374;13.132;2024-03-08T00:49:19;22.20;;;14.07;;
7158;SDS011;63175;52.374;13.132;2024-03-08T00:51:46;29.83;;;16.03;;
7158;SDS011;63175;52.374;13.132;2024-03-08T00:54:13;23.80;;;14.40;;
7158;SDS011;63175;52.374;13.132;2024-03-08T00:56:41;26.10;;;15.23;;
7158;SDS011;63175;52.374;13.132;2024-03-08T00:59:08;20.97;;;13.00;;
7158;SDS011;63175;52.374;13.132;2024-03-08T01:01:36;23.10;;;13.33;;
7158;SDS011;63175;52.374;13.132;2024-03-08T01:04:03;22.90;;;12.47;;
7158;SDS011;63175;52.374;13.132;2024-03-08T01:06:30;20.67;;;12.60;;
7158;SDS011;63175;52.374;13.132;2024-03-08T01:08:58;21.60;;;12.40;;
7158;SDS011;63175;52.374;13.132;2024-03-08T01:11:25;20.13;;;11.90;;
7158;SDS011;63175;52.374;13.132;2024-03-08T01:13:53;26.03;;;13.10;;
7158;SDS011;63175;52.374;13.132;2024-03-08T01:16:20;18.70;;;12.03;;
7158;SDS011;63175;52.374;13.132;2024-03-08T01:18:48;24.80;;;12.60;;
7158;SDS011;63175;52.374;13.132;2024-03-08T01:21:15;20.20;;;11.33;;
7158;SDS011;63175;52.374;13.132;2024-03-08T01:23:42;22.20;;;13.10;;
7158;SDS011;63175;52.374;13.132;2024-03-08T01:26:08;26.17;;;13.40;;
7158;SDS011;63175;52.374;13.132;2024-03-08T01:28:35;20.33;;;12.77;;
7158;SDS011;63175;52.374;13.132;2024-03-08T01:31:02;24.53;;;13.43;;
7158;SDS011;63175;52.374;13.132;2024-03-08T01:33:30;16.10;;;10.73;;
7158;SDS011;63175;52.374;13.132;2024-03-08T01:35:58;20.13;;;11.70;;
7158;SDS011;63175;52.374;13.132;2024-03-08T01:38:25;21.80;;;13.70;;
7158;SDS011;63175;52.374;13.132;2024-03-08T01:40:52;26.37;;;13.60;;
7158;SDS011;63175;52.374;13.132;2024-03-08T01:43:19;22.30;;;13.70;;
7158;SDS011;63175;52.374;13.132;2024-03-08T01:45:47;24.30;;;13.57;;
7158;SDS011;63175;52.374;13.132;2024-03-08T01:48:14;17.70;;;10.77;;
7158;SDS011;63175;52.374;13.132;2024-03-08T01:50:42;28.33;;;13.40;;
7158;SDS011;63175;52.374;13.132;2024-03-08T01:53:11;22.03;;;12.90;;
7158;SDS011;63175;52.374;13.132;2024-03-08T01:55:40;24.53;;;13.33;;
7158;SDS011;63175;52.374;13.132;2024-03-08T01:58:08;24.63;;;14.40;;
7158;SDS011;63175;52.374;13.132;2024-03-08T02:00:36;21.43;;;13.10;;
7158;SDS011;63175;52.374;13.132;2024-03-08T02:03:05;23.13;;;13.50;;
7158;SDS011;63175;52.374;13.132;2024-03-08T02:05:32;23.77;;;13.83;;
7158;SDS011;63175;52.374;13.132;2024-03-08T02:07:58;22.43;;;11.83;;
7158;SDS011;63175;52.374;13.132;2024-03-08T02:10:27;18.50;;;11.10;;
7158;SDS011;63175;52.374;13.132;2024-03-08T02:12:53;24.00;;;13.13;;
7158;SDS011;63175;52.374;13.132;2024-03-08T02:15:21;21.03;;;12.63;;
7158;SDS011;63175;52.374;13.132;2024-03-08T02:17:47;20.23;;;11.87;;
7158;SDS011;63175;52.374;13.132;2024-03-08T02:20:14;19.80;;;12.63;;
7158;SDS011;63175;52.374;13.132;2024-03-08T02:22:42;18.40;;;12.30;;
7158;SDS011;63175;52.374;13.132;2024-03-08T02:25:09;20.33;;;13.73;;
7158;SDS011;63175;52.374;13.132;2024-03-08T02:27:37;21.60;;;12.07;;
7158;SDS011;63175;52.374;13.132;2024-03-08T02:30:04;22.07;;;13.80;;
7158;SDS011;63175;52.374;13.132;2024-03-08T02:32:31;19.93;;;12.70;;
7158;SDS011;63175;52.374;13.132;2024-03-08T02:34:58;21.63;;;13.50;;
7158;SDS011;63175;52.374;13.132;2024-03-08T02:37:25;18.90;;;12.80;;
7158;SDS011;63175;52.374;13.132;2024-03-08T02:39:54;23.13;;;13.87;;
7158;SDS011;63175;52.374;13.132;2024-03-08T02:42:21;20.27;;;13.47;;
7158;SDS011;63175;52.374;13.132;2024-03-08T02:44:48;21.63;;;13.43;;
7158;SDS011;63175;52.374;13.132;2024-03-08T02:47:14;19.73;;;12.00;;
7158;SDS011;63175;52.374;13.132;2024-03-08T02:49:41;23.90;;;13.20;;
7158;SDS011;63175;52.374;13.132;2024-03-08T02:52:08;26.27;;;13.17;;
7158;SDS011;63175;52.374;13.132;2024-03-08T02:54:34;25.47;;;13.67;;
7158;SDS011;63175;52.374;13.132;2024-03-08T02:57:03;22.57;;;12.47;;
7158;SDS011;63175;52.374;13.132;2024-03-08T02:59:32;24.03;;;12.67;;
7158;SDS011;63175;52.374;13.132;2024-03-08T03:01:59;22.03;;;13.77;;
7158;SDS011;63175;52.374;13.132;2024-03-08T03:04:26;23.53;;;13.70;;
7158;SDS011;63175;52.374;13.132;2024-03-08T03:06:52;19.83;;;11.80;;
7158;SDS011;63175;52.374;13.132;2024-03-08T03:09:19;19.93;;;12.33;;
7158;SDS011;63175;52.374;13.132;2024-03-08T03:11:51;23.77;;;12.17;;
7158;SDS011;63175;52.374;13.132;2024-03-08T03:14:19;21.00;;;12.77;;
7158;SDS011;63175;52.374;13.132;2024-03-08T03:16:46;21.80;;;12.50;;
7158;SDS011;63175;52.374;13.132;2024-03-08T03:19:13;20.27;;;11.40;;
7158;SDS011;63175;52.374;13.132;2024-03-08T03:21:40;21.20;;;12.80;;
7158;SDS011;63175;52.374;13.132;2024-03-08T03:24:08;22.60;;;13.70;;
7158;SDS011;63175;52.374;13.132;2024-03-08T03:26:35;17.77;;;11.90;;
7158;SDS011;63175;52.374;13.132;2024-03-08T03:29:04;22.33;;;12.33;;
7158;SDS011;63175;52.374;13.132;2024-03-08T03:31:34;24.60;;;13.90;;
7158;SDS011;63175;52.374;13.132;2024-03-08T03:34:02;28.20;;;14.83;;
7158;SDS011;63175;52.374;13.132;2024-03-08T03:36:29;21.93;;;13.30;;
7158;SDS011;63175;52.374;13.132;2024-03-08T03:38:56;24.47;;;14.63;;
7158;SDS011;63175;52.374;13.132;2024-03-08T03:41:35;26.77;;;14.57;;
7158;SDS011;63175;52.374;13.132;2024-03-08T03:44:01;25.03;;;14.47;;
7158;SDS011;63175;52.374;13.132;2024-03-08T03:46:28;22.83;;;13.20;;
7158;SDS011;63175;52.374;13.132;2024-03-08T03:48:56;24.13;;;13.80;;
7158;SDS011;63175;52.374;13.132;2024-03-08T03:51:23;28.47;;;12.87;;
7158;SDS011;63175;52.374;13.132;2024-03-08T03:53:50;26.50;;;13.80;;
7158;SDS011;63175;52.374;13.132;2024-03-08T03:56:18;26.93;;;12.63;;
7158;SDS011;63175;52.374;13.132;2024-03-08T03:58:44;25.00;;;13.70;;
7158;SDS011;63175;52.374;13.132;2024-03-08T04:01:11;25.67;;;13.73;;
7158;SDS011;63175;52.374;13.132;2024-03-08T04:03:40;26.70;;;13.40;;
7158;SDS011;63175;52.374;13.132;2024-03-08T04:06:09;23.23;;;12.60;;
7158;SDS011;63175;52.374;13.132;2024-03-08T04:08:36;23.37;;;13.97;;
7158;SDS011;63175;52.374;13.132;2024-03-08T04:11:03;27.23;;;14.23;;
7158;SDS011;63175;52.374;13.132;2024-03-08T04:13:29;20.07;;;13.60;;
7158;SDS011;63175;52.374;13.132;2024-03-08T04:15:56;24.03;;;13.60;;
7158;SDS011;63175;52.374;13.132;2024-03-08T04:18:23;23.43;;;13.60;;
7158;SDS011;63175;52.374;13.132;2024-03-08T04:20:49;23.20;;;13.70;;
7158;SDS011;63175;52.374;13.132;2024-03-08T04:23:17;24.67;;;14.13;;
7158;SDS011;63175;52.374;13.132;2024-03-08T04:25:44;19.90;;;11.93;;
7158;SDS011;63175;52.374;13.132;2024-03-08T04:28:11;20.37;;;11.87;;
7158;SDS011;63175;52.374;13.132;2024-03-08T04:30:38;18.10;;;11.77;;
7158;SDS011;63175;52.374;13.132;2024-03-08T04:33:05;25.43;;;14.13;;
7158;SDS011;63175;52.374;13.132;2024-03-08T04:35:33;22.17;;;13.03;;
7158;SDS011;63175;52.374;13.132;2024-03-08T04:38:00;18.63;;;12.50;;
7158;SDS011;63175;52.374;13.132;2024-03-08T04:40:28;20.87;;;12.83;;
7158;SDS011;63175;52.374;13.132;2024-03-08T04:42:56;20.03;;;12.30;;
7158;SDS011;63175;52.374;13.132;2024-03-08T04:45:25;24.40;;;13.13;;
7158;SDS011;63175;52.374;13.132;2024-03-08T04:47:51;23.90;;;14.47;;
7158;SDS011;63175;52.374;13.132;2024-03-08T04:50:18;26.10;;;14.67;;
7158;SDS011;63175;52.374;13.132;2024-03-08T04:52:45;23.17;;;14.50;;
7158;SDS011;63175;52.374;13.132;2024-03-08T04:55:12;24.17;;;14.10;;
7158;SDS011;63175;52.374;13.132;2024-03-08T04:57:40;25.43;;;14.03;;
7158;SDS011;63175;52.374;13.132;2024-03-08T05:00:09;21.03;;;13.33;;
7158;SDS011;63175;52.374;13.132;2024-03-08T05:02:36;23.70;;;13.97;;
7158;SDS011;63175;52.374;13.132;2024-03-08T05:05:04;23.03;;;12.53;;
7158;SDS011;63175;52.374;13.132;2024-03-08T05:07:32;22.30;;;12.43;;
7158;SDS011;63175;52.374;13.132;2024-03-08T05:09:59;23.47;;;13.83;;
7158;SDS011;63175;52.374;13.132;2024-03-08T05:12:27;21.37;;;12.23;;
7158;SDS011;63175;52.374;13.132;2024-03-08T05:14:55;22.10;;;12.00;;
7158;SDS011;63175;52.374;13.132;2024-03-08T05:17:22;22.70;;;12.43;;
7158;SDS011;63175;52.374;13.132;2024-03-08T05:19:49;22.47;;;12.40;;
7158;SDS011;63175;52.374;13.132;2024-03-08T05:22:16;24.70;;;13.17;;
7158;SDS011;63175;52.374;13.132;2024-03-08T05:24:43;25.50;;;13.87;;
7158;SDS011;63175;52.374;13.132;2024-03-08T05:27:10;23.13;;;12.30;;
7158;SDS011;63175;52.374;13.132;2024-03-08T05:29:38;19.93;;;12.80;;
7158;SDS011;63175;52.374;13.132;2024-03-08T05:32:06;24.50;;;14.33;;
7158;SDS011;63175;52.374;13.132;2024-03-08T05:34:33;23.60;;;13.30;;
7158;SDS011;63175;52.374;13.132;2024-03-08T05:37:00;18.43;;;12.17;;
7158;SDS011;63175;52.374;13.132;2024-03-08T05:39:26;21.07;;;12.87;;
7158;SDS011;63175;52.374;13.132;2024-03-08T05:41:53;24.07;;;15.10;;
7158;SDS011;63175;52.374;13.132;2024-03-08T05:44:21;22.80;;;13.90;;
7158;SDS011;63175;52.374;13.132;2024-03-08T05:46:48;24.23;;;14.10;;
7158;SDS011;63175;52.374;13.132;2024-03-08T05:49:17;21.07;;;13.47;;
7158;SDS011;63175;52.374;13.132;2024-03-08T05:51:43;24.90;;;14.00;;
7158;SDS011;63175;52.374;13.132;2024-03-08T05:54:12;20.90;;;12.77;;
7158;SDS011;63175;52.374;13.132;2024-03-08T05:56:39;22.43;;;12.63;;
7158;SDS011;63175;52.374;13.132;2024-03-08T05:59:07;22.07;;;13.67;;
7158;SDS011;63175;52.374;13.132;2024-03-08T06:01:34;21.30;;;13.17;;
7158;SDS011;63175;52.374;13.132;2024-03-08T06:04:01;21.40;;;12.20;;
7158;SDS011;63175;52.374;13.132;2024-03-08T06:06:30;25.23;;;14.30;;
7158;SDS011;63175;52.374;13.132;2024-03-08T06:08:57;27.33;;;14.77;;
7158;SDS011;63175;52.374;13.132;2024-03-08T06:11:24;24.33;;;13.27;;
7158;SDS011;63175;52.374;13.132;2024-03-08T06:13:51;25.23;;;14.57;;
7158;SDS011;63175;52.374;13.132;2024-03-08T06:16:24;24.40;;;13.90;;
7158;SDS011;63175;52.374;13.132;2024-03-08T06:18:53;23.83;;;14.63;;
7158;SDS011;63175;52.374;13.132;2024-03-08T06:21:22;27.13;;;14.30;;
7158;SDS011;63175;52.374;13.132;2024-03-08T06:23:52;25.27;;;13.50;;
7158;SDS011;63175;52.374;13.132;2024-03-08T06:26:19;21.57;;;13.07;;
7158;SDS011;63175;52.374;13.132;2024-03-08T06:28:46;20.93;;;12.63;;
7158;SDS011;63175;52.374;13.132;2024-03-08T06:31:13;27.23;;;15.97;;
7158;SDS011;63175;52.374;13.132;2024-03-08T06:33:40;25.53;;;13.90;;
7158;SDS011;63175;52.374;13.132;2024-03-08T06:36:08;24.00;;;14.43;;
7158;SDS011;63175;52.374;13.132;2024-03-08T06:38:36;24.10;;;13.57;;
7158;SDS011;63175;52.374;13.132;2024-03-08T06:41:08;22.77;;;14.00;;
7158;SDS011;63175;52.374;13.132;2024-03-08T06:43:40;24.20;;;14.73;;
7158;SDS011;63175;52.374;13.132;2024-03-08T06:46:07;25.83;;;14.20;;
7158;SDS011;63175;52.374;13.132;2024-03-08T06:48:33;21.67;;;13.80;;
7158;SDS011;63175;52.374;13.132;2024-03-08T06:51:02;30.87;;;15.63;;
7158;SDS011;63175;52.374;13.132;2024-03-08T06:53:29;25.93;;;15.33;;
7158;SDS011;63175;52.374;13.132;2024-03-08T06:55:55;20.63;;;13.57;;
7158;SDS011;63175;52.374;13.132;2024-03-08T06:58:23;25.67;;;15.83;;
7158;SDS011;63175;52.374;13.132;2024-03-08T07:00:50;26.53;;;14.50;;
7158;SDS011;63175;52.374;13.132;2024-03-08T07:03:17;23.60;;;15.30;;
7158;SDS011;63175;52.374;13.132;2024-03-08T07:05:44;23.50;;;13.80;;
7158;SDS011;63175;52.374;13.132;2024-03-08T07:08:11;22.43;;;13.73;;
7158;SDS011;63175;52.374;13.132;2024-03-08T07:10:39;25.73;;;14.50;;
7158;SDS011;63175;52.374;13.132;2024-03-08T07:13:06;28.30;;;15.20;;
7158;SDS011;63175;52.374;13.132;2024-03-08T07:15:34;25.80;;;14.70;;
7158;SDS011;63175;52.374;13.132;2024-03-08T07:18:01;27.20;;;14.60;;
7158;SDS011;63175;52.374;13.132;2024-03-08T07:20:29;25.50;;;14.40;;
7158;SDS011;63175;52.374;13.132;2024-03-08T07:22:55;25.60;;;14.70;;
7158;SDS011;63175;52.374;13.132;2024-03-08T07:25:22;26.33;;;15.70;;
7158;SDS011;63175;52.374;13.132;2024-03-08T07:27:50;31.90;;;15.97;;
7158;SDS011;63175;52.374;13.132;2024-03-08T07:30:18;29.50;;;15.97;;
7158;SDS011;63175;52.374;13.132;2024-03-08T07:33:15;28.83;;;17.43;;
7158;SDS011;63175;52.374;13.132;2024-03-08T07:35:42;25.03;;;13.90;;
7158;SDS011;63175;52.374;13.132;2024-03-08T07:38:09;23.67;;;14.63;;
7158;SDS011;63175;52.374;13.132;2024-03-08T07:40:37;25.40;;;15.30;;
7158;SDS011;63175;52.374;13.132;2024-03-08T07:43:05;26.83;;;15.40;;
7158;SDS011;63175;52.374;13.132;2024-03-08T07:45:32;27.73;;;16.10;;
7158;SDS011;63175;52.374;13.132;2024-03-08T07:47:58;26.90;;;15.97;;
7158;SDS011;63175;52.374;13.132;2024-03-08T07:50:26;27.50;;;15.43;;
7158;SDS011;63175;52.374;13.132;2024-03-08T07:52:53;24.37;;;14.87;;
7158;SDS011;63175;52.374;13.132;2024-03-08T07:55:20;26.90;;;15.23;;
7158;SDS011;63175;52.374;13.132;2024-03-08T07:57:49;25.00;;;15.33;;
7158;SDS011;63175;52.374;13.132;2024-03-08T08:00:16;24.80;;;15.60;;
7158;SDS011;63175;52.374;13.132;2024-03-08T08:02:43;24.47;;;15.40;;
7158;SDS011;63175;52.374;13.132;2024-03-08T08:05:11;28.97;;;16.40;;
7158;SDS011;63175;52.374;13.132;2024-03-08T08:07:39;26.13;;;17.60;;
7158;SDS011;63175;52.374;13.132;2024-03-08T08:10:08;25.03;;;15.67;;
7158;SDS011;63175;52.374;13.132;2024-03-08T08:12:41;23.40;;;15.80;;
7158;SDS011;63175;52.374;13.132;2024-03-08T08:15:08;25.63;;;16.57;;
7158;SDS011;63175;52.374;13.132;2024-03-08T08:17:35;26.53;;;16.80;;
7158;SDS011;63175;52.374;13.132;2024-03-08T08:20:02;28.57;;;16.00;;
7158;SDS011;63175;52.374;13.132;2024-03-08T08:22:30;27.03;;;15.53;;
7158;SDS011;63175;52.374;13.132;2024-03-08T08:24:58;25.13;;;15.87;;
7158;SDS011;63175;52.374;13.132;2024-03-08T08:27:25;26.97;;;16.53;;
7158;SDS011;63175;52.374;13.132;2024-03-08T08:29:52;28.13;;;16.10;;
7158;SDS011;63175;52.374;13.132;2024-03-08T08:32:18;24.33;;;15.30;;
7158;SDS011;63175;52.374;13.132;2024-03-08T08:34:45;24.77;;;16.00;;
7158;SDS011;63175;52.374;13.132;2024-03-08T08:37:13;22.23;;;15.07;;
7158;SDS011;63175;52.374;13.132;2024-03-08T08:39:40;26.27;;;16.57;;
7158;SDS011;63175;52.374;13.132;2024-03-08T08:42:08;23.43;;;15.33;;
7158;SDS011;63175;52.374;13.132;2024-03-08T08:44:36;24.80;;;15.40;;
7158;SDS011;63175;52.374;13.132;2024-03-08T08:47:03;25.90;;;15.70;;
7158;SDS011;63175;52.374;13.132;2024-03-08T08:49:29;25.83;;;17.27;;
7158;SDS011;63175;52.374;13.132;2024-03-08T08:51:56;25.87;;;17.27;;
7158;SDS011;63175;52.374;13.132;2024-03-08T08:54:23;26.37;;;17.60;;
7158;SDS011;63175;52.374;13.132;2024-03-08T08:56:52;26.60;;;17.70;;
7158;SDS011;63175;52.374;13.132;2024-03-08T08:59:20;34.40;;;18.13;;
7158;SDS011;63175;52.374;13.132;2024-03-08T09:01:50;20.23;;;14.50;;
7158;SDS011;63175;52.374;13.132;2024-03-08T09:04:18;23.37;;;15.23;;
7158;SDS011;63175;52.374;13.132;2024-03-08T09:06:46;26.93;;;17.60;;
7158;SDS011;63175;52.374;13.132;2024-03-08T09:09:13;23.40;;;15.10;;
7158;SDS011;63175;52.374;13.132;2024-03-08T09:11:42;26.93;;;16.33;;
7158;SDS011;63175;52.374;13.132;2024-03-08T09:14:08;19.90;;;14.47;;
7158;SDS011;63175;52.374;13.132;2024-03-08T09:16:38;23.87;;;15.50;;
7158;SDS011;63175;52.374;13.132;2024-03-08T09:19:05;22.47;;;14.20;;
7158;SDS011;63175;52.374;13.132;2024-03-08T09:21:31;21.63;;;14.37;;
7158;SDS011;63175;52.374;13.132;2024-03-08T09:23:59;25.33;;;14.23;;
7158;SDS011;63175;52.374;13.132;2024-03-08T09:26:26;21.00;;;14.80;;
7158;SDS011;63175;52.374;13.132;2024-03-08T09:28:53;22.50;;;15.57;;
7158;SDS011;63175;52.374;13.132;2024-03-08T09:31:19;20.90;;;14.50;;
7158;SDS011;63175;52.374;13.132;2024-03-08T09:33:47;24.00;;;15.17;;
7158;SDS011;63175;52.374;13.132;2024-03-08T09:36:15;21.90;;;14.93;;
7158;SDS011;63175;52.374;13.132;2024-03-08T09:38:42;26.77;;;15.07;;
7158;SDS011;63175;52.374;13.132;2024-03-08T09:41:09;22.63;;;15.37;;
7158;SDS011;63175;52.374;13.132;2024-03-08T09:43:37;21.33;;;13.93;;
7158;SDS011;63175;52.374;13.132;2024-03-08T09:46:04;19.80;;;13.50;;
7158;SDS011;63175;52.374;13.132;2024-03-08T09:48:33;24.93;;;15.80;;
7158;SDS011;63175;52.374;13.132;2024-03-08T09:51:02;21.90;;;13.30;;
7158;SDS011;63175;52.374;13.132;2024-03-08T09:53:29;17.20;;;12.90;;
7158;SDS011;63175;52.374;13.132;2024-03-08T09:55:56;19.97;;;13.00;;
7158;SDS011;63175;52.374;13.132;2024-03-08T09:58:24;16.80;;;11.67;;
7158;SDS011;63175;52.374;13.132;2024-03-08T10:01:14;17.87;;;12.63;;
7158;SDS011;63175;52.374;13.132;2024-03-08T10:03:40;23.37;;;13.07;;
7158;SDS011;63175;52.374;13.132;2024-03-08T10:06:08;27.27;;;15.17;;
7158;SDS011;63175;52.374;13.132;2024-03-08T10:08:35;16.90;;;11.83;;
7158;SDS011;63175;52.374;13.132;2024-03-08T10:11:02;22.03;;;12.93;;
7158;SDS011;63175;52.374;13.132;2024-03-08T10:13:29;21.97;;;14.77;;
7158;SDS011;63175;52.374;13.132;2024-03-08T10:15:56;21.13;;;14.57;;
7158;SDS011;63175;52.374;13.132;2024-03-08T10:18:23;19.27;;;13.20;;
7158;SDS011;63175;52.374;13.132;2024-03-08T10:21:03;21.93;;;14.13;;
7158;SDS011;63175;52.374;13.132;2024-03-08T10:23:31;24.63;;;13.40;;
7158;SDS011;63175;52.374;13.132;2024-03-08T10:26:09;19.00;;;12.60;;
7158;SDS011;63175;52.374;13.132;2024-03-08T10:28:39;20.53;;;13.77;;
7158;SDS011;63175;52.374;13.132;2024-03-08T10:31:06;19.57;;;13.90;;
7158;SDS011;63175;52.374;13.132;2024-03-08T10:33:33;17.20;;;13.00;;
7158;SDS011;63175;52.374;13.132;2024-03-08T10:36:00;22.80;;;14.23;;
7158;SDS011;63175;52.374;13.132;2024-03-08T10:38:28;20.10;;;14.20;;
7158;SDS011;63175;52.374;13.132;2024-03-08T10:40:59;16.40;;;12.40;;
7158;SDS011;63175;52.374;13.132;2024-03-08T10:43:26;17.97;;;12.80;;
7158;SDS011;63175;52.374;13.132;2024-03-08T10:46:04;16.33;;;12.70;;
7158;SDS011;63175;52.374;13.132;2024-03-08T10:48:41;19.00;;;11.40;;
7158;SDS011;63175;52.374;13.132;2024-03-08T10:51:11;16.20;;;11.97;;
7158;SDS011;63175;52.374;13.132;2024-03-08T10:53:39;18.80;;;12.23;;
7158;SDS011;63175;52.374;13.132;2024-03-08T10:56:06;14.53;;;10.87;;
7158;SDS011;63175;52.374;13.132;2024-03-08T10:58:35;18.23;;;13.20;;
7158;SDS011;63175;52.374;13.132;2024-03-08T11:01:03;20.07;;;13.90;;
7158;SDS011;63175;52.374;13.132;2024-03-08T11:03:43;15.80;;;10.77;;
7158;SDS011;63175;52.374;13.132;2024-03-08T11:06:13;13.13;;;9.73;;
7158;SDS011;63175;52.374;13.132;2024-03-08T11:08:43;14.37;;;9.90;;
7158;SDS011;63175;52.374;13.132;2024-03-08T11:11:23;13.40;;;9.90;;
7158;SDS011;63175;52.374;13.132;2024-03-08T11:13:52;15.60;;;10.90;;
7158;SDS011;63175;52.374;13.132;2024-03-08T11:19:06;14.47;;;10.37;;
7158;SDS011;63175;52.374;13.132;2024-03-08T11:21:50;14.03;;;9.90;;
7158;SDS011;63175;52.374;13.132;2024-03-08T11:24:25;15.33;;;11.60;;
7158;SDS011;63175;52.374;13.132;2024-03-08T11:26:54;15.30;;;12.10;;
7158;SDS011;63175;52.374;13.132;2024-03-08T11:29:32;15.80;;;11.50;;
7158;SDS011;63175;52.374;13.132;2024-03-08T11:32:04;19.47;;;14.23;;
7158;SDS011;63175;52.374;13.132;2024-03-08T11:34:33;17.47;;;9.67;;
7158;SDS011;63175;52.374;13.132;2024-03-08T11:37:00;15.20;;;11.57;;
7158;SDS011;63175;52.374;13.132;2024-03-08T11:39:30;17.17;;;11.97;;
7158;SDS011;63175;52.374;13.132;2024-03-08T11:41:57;13.93;;;10.93;;
7158;SDS011;63175;52.374;13.132;2024-03-08T11:44:26;14.27;;;10.53;;
7158;SDS011;63175;52.374;13.132;2024-03-08T11:46:53;20.90;;;10.77;;
7158;SDS011;63175;52.374;13.132;2024-03-08T11:49:20;22.93;;;11.10;;
7158;SDS011;63175;52.374;13.132;2024-03-08T11:51:50;14.10;;;10.47;;
7158;SDS011;63175;52.374;13.132;2024-03-08T11:54:18;15.97;;;10.77;;
7158;SDS011;63175;52.374;13.132;2024-03-08T11:56:46;17.70;;;10.90;;
7158;SDS011;63175;52.374;13.132;2024-03-08T11:59:13;15.90;;;10.80;;
7158;SDS011;63175;52.374;13.132;2024-03-08T12:01:42;14.87;;;11.20;;
7158;SDS011;63175;52.374;13.132;2024-03-08T12:04:11;14.33;;;10.33;;
7158;SDS011;63175;52.374;13.132;2024-03-08T12:06:39;13.93;;;10.20;;
7158;SDS011;63175;52.374;13.132;2024-03-08T12:09:09;12.50;;;9.80;;
7158;SDS011;63175;52.374;13.132;2024-03-08T12:11:36;15.90;;;10.80;;
7158;SDS011;63175;52.374;13.132;2024-03-08T12:14:04;15.57;;;10.40;;
7158;SDS011;63175;52.374;13.132;2024-03-08T12:16:32;18.43;;;11.63;;
7158;SDS011;63175;52.374;13.132;2024-03-08T12:18:59;18.23;;;11.27;;
7158;SDS011;63175;52.374;13.132;2024-03-08T12:21:30;11.07;;;9.00;;
7158;SDS011;63175;52.374;13.132;2024-03-08T12:24:03;10.97;;;8.80;;
7158;SDS011;63175;52.374;13.132;2024-03-08T12:26:34;13.27;;;10.07;;
7158;SDS011;63175;52.374;13.132;2024-03-08T12:29:16;15.40;;;9.10;;
7158;SDS011;63175;52.374;13.132;2024-03-08T12:31:45;13.57;;;10.20;;
7158;SDS011;63175;52.374;13.132;2024-03-08T12:34:12;13.00;;;9.67;;
7158;SDS011;63175;52.374;13.132;2024-03-08T12:36:43;12.63;;;9.30;;
7158;SDS011;63175;52.374;13.132;2024-03-08T12:39:12;11.77;;;9.13;;
7158;SDS011;63175;52.374;13.132;2024-03-08T12:41:41;11.90;;;9.17;;
7158;SDS011;63175;52.374;13.132;2024-03-08T12:44:08;14.60;;;10.67;;
7158;SDS011;63175;52.374;13.132;2024-03-08T12:46:37;16.87;;;10.83;;
7158;SDS011;63175;52.374;13.132;2024-03-08T12:49:07;16.63;;;11.20;;
7158;SDS011;63175;52.374;13.132;2024-03-08T12:51:34;11.27;;;8.60;;
7158;SDS011;63175;52.374;13.132;2024-03-08T12:54:01;12.80;;;9.60;;
7158;SDS011;63175;52.374;13.132;2024-03-08T12:56:28;11.83;;;8.97;;
7158;SDS011;63175;52.374;13.132;2024-03-08T12:58:57;14.87;;;9.03;;
7158;SDS011;63175;52.374;13.132;2024-03-08T13:01:24;14.73;;;8.80;;
7158;SDS011;63175;52.374;13.132;2024-03-08T13:03:53;12.73;;;10.00;;
7158;SDS011;63175;52.374;13.132;2024-03-08T13:06:20;14.40;;;9.80;;
7158;SDS011;63175;52.374;13.132;2024-03-08T13:08:49;12.90;;;10.03;;
7158;SDS011;63175;52.374;13.132;2024-03-08T13:11:17;17.20;;;10.77;;
7158;SDS011;63175;52.374;13.132;2024-03-08T13:13:44;16.17;;;10.67;;
7158;SDS011;63175;52.374;13.132;2024-03-08T13:16:11;12.40;;;9.93;;
7158;SDS011;63175;52.374;13.132;2024-03-08T13:18:40;14.53;;;10.63;;
7158;SDS011;63175;52.374;13.132;2024-03-08T13:21:09;13.00;;;9.20;;
7158;SDS011;63175;52.374;13.132;2024-03-08T13:23:39;14.83;;;10.90;;
7158;SDS011;63175;52.374;13.132;2024-03-08T13:26:10;11.90;;;8.53;;
7158;SDS011;63175;52.374;13.132;2024-03-08T13:28:40;16.47;;;10.80;;
7158;SDS011;63175;52.374;13.132;2024-03-08T13:31:07;18.43;;;9.87;;
7158;SDS011;63175;52.374;13.132;2024-03-08T13:33:35;14.67;;;9.50;;
7158;SDS011;63175;52.374;13.132;2024-03-08T13:36:02;14.23;;;8.63;;
7158;SDS011;63175;52.374;13.132;2024-03-08T13:38:30;16.40;;;9.90;;
7158;SDS011;63175;52.374;13.132;2024-03-08T13:40:58;17.07;;;10.50;;
7158;SDS011;63175;52.374;13.132;2024-03-08T13:43:24;12.53;;;9.07;;
7158;SDS011;63175;52.374;13.132;2024-03-08T13:45:53;19.17;;;10.47;;
7158;SDS011;63175;52.374;13.132;2024-03-08T13:48:20;12.50;;;8.90;;
7158;SDS011;63175;52.374;13.132;2024-03-08T13:50:47;12.73;;;9.50;;
7158;SDS011;63175;52.374;13.132;2024-03-08T13:53:14;12.13;;;9.00;;
7158;SDS011;63175;52.374;13.132;2024-03-08T13:55:42;13.73;;;8.80;;
